sensor_id;sensor_type;location;lat;lon;timestamp;temperature;humidity
2010;DHT22;1008;47.404;8.502;2024-01-16T00:02:20;0.40;99.90
2010;DHT22;1008;47.404;8.502;2024-01-16T00:04:48;0.30;99.90
2010;DHT22;1008;47.404;8.502;2024-01-16T00:07:17;0.40;99.90
2010;DHT22;1008;47.404;8.502;2024-01-16T00:09:44;0.40;99.90
2010;DHT22;1008;47.404;8.502;2024-01-16T00:12:12;0.40;99.90
2010;DHT22;1008;47.404;8.502;2024-01-16T00:14:39;0.30;99.90
2010;DHT22;1008;47.404;8.502;2024-01-16T00:17:09;0.30;99.90
2010;DHT22;1008;47.404;8.502;2024-01-16T00:19:37;0.50;99.90
2010;DHT22;1008;47.404;8.502;2024-01-16T00:22:07;0.40;99.90
2010;DHT22;1008;47.404;8.502;2024-01-16T00:24:34;0.40;99.90
2010;DHT22;1008;47.404;8.502;2024-01-16T00:27:01;0.30;99.90
2010;DHT22;1008;47.404;8.502;2024-01-16T00:29:31;0.10;99.90
2010;DHT22;1008;47.404;8.502;2024-01-16T00:31:58;0.30;99.90
2010;DHT22;1008;47.404;8.502;2024-01-16T00:34:25;0.40;99.90
2010;DHT22;1008;47.404;8.502;2024-01-16T00:36:52;0.40;99.90
2010;DHT22;1008;47.404;8.502;2024-01-16T00:39:20;0.40;99.90
2010;DHT22;1008;47.404;8.502;2024-01-16T00:41:47;0.40;99.90
2010;DHT22;1008;47.404;8.502;2024-01-16T00:44:13;0.40;99.90
2010;DHT22;1008;47.404;8.502;2024-01-16T00:46:40;0.30;99.90
2010;DHT22;1008;47.404;8.502;2024-01-16T00:49:07;0.30;99.90
2010;DHT22;1008;47.404;8.502;2024-01-16T00:51:34;0.20;99.90
2010;DHT22;1008;47.404;8.502;2024-01-16T00:54:00;0.10;99.90
2010;DHT22;1008;47.404;8.502;2024-01-16T00:56:28;0.10;99.90
2010;DHT22;1008;47.404;8.502;2024-01-16T00:58:57;0.20;99.90
2010;DHT22;1008;47.404;8.502;2024-01-16T01:01:24;0.10;99.90
2010;DHT22;1008;47.404;8.502;2024-01-16T01:03:51;0.00;99.90
2010;DHT22;1008;47.404;8.502;2024-01-16T01:06:21;0.10;99.90
2010;DHT22;1008;47.404;8.502;2024-01-16T01:08:48;0.20;99.90
2010;DHT22;1008;47.404;8.502;2024-01-16T01:11:15;0.30;99.90
2010;DHT22;1008;47.404;8.502;2024-01-16T01:13:43;0.30;99.90
2010;DHT22;1008;47.404;8.502;2024-01-16T01:16:10;0.30;99.90
2010;DHT22;1008;47.404;8.502;2024-01-16T01:18:37;0.10;99.90
2010;DHT22;1008;47.404;8.502;2024-01-16T01:21:04;0.10;99.90
2010;DHT22;1008;47.404;8.502;2024-01-16T01:23:31;0.10;99.90
2010;DHT22;1008;47.404;8.502;2024-01-16T01:25:58;0.00;99.90
2010;DHT22;1008;47.404;8.502;2024-01-16T01:28:25;0.10;99.90
2010;DHT22;1008;47.404;8.502;2024-01-16T01:30:53;0.20;99.90
2010;DHT22;1008;47.404;8.502;2024-01-16T01:33:20;0.30;99.90
2010;DHT22;1008;47.404;8.502;2024-01-16T01:35:46;0.30;99.90
2010;DHT22;1008;47.404;8.502;2024-01-16T01:38:13;0.10;99.90
2010;DHT22;1008;47.404;8.502;2024-01-16T01:40:40;0.10;99.90
2010;DHT22;1008;47.404;8.502;2024-01-16T01:43:17;0.20;99.90
2010;DHT22;1008;47.404;8.502;2024-01-16T01:45:47;0.20;99.90
2010;DHT22;1008;47.404;8.502;2024-01-16T01:48:15;0.30;99.90
2010;DHT22;1008;47.404;8.502;2024-01-16T01:50:42;0.30;99.90
2010;DHT22;1008;47.404;8.502;2024-01-16T01:53:09;0.20;99.90
2010;DHT22;1008;47.404;8.502;2024-01-16T01:55:36;0.20;99.90
2010;DHT22;1008;47.404;8.502;2024-01-16T01:58:03;0.40;99.90
2010;DHT22;1008;47.404;8.502;2024-01-16T02:00:30;0.40;99.90
2010;DHT22;1008;47.404;8.502;2024-01-16T02:02:57;0.30;99.90
2010;DHT22;1008;47.404;8.502;2024-01-16T02:05:25;0.40;99.90
2010;DHT22;1008;47.404;8.502;2024-01-16T02:07:53;0.50;99.90
2010;DHT22;1008;47.404;8.502;2024-01-16T02:10:20;0.50;99.90
2010;DHT22;1008;47.404;8.502;2024-01-16T02:12:47;0.60;99.90
2010;DHT22;1008;47.404;8.502;2024-01-16T02:15:14;0.60;99.90
2010;DHT22;1008;47.404;8.502;2024-01-16T02:17:41;0.60;99.90
2010;DHT22;1008;47.404;8.502;2024-01-16T02:20:11;0.60;99.90
2010;DHT22;1008;47.404;8.502;2024-01-16T02:22:40;0.60;99.90
2010;DHT22;1008;47.404;8.502;2024-01-16T02:25:11;0.60;99.90
2010;DHT22;1008;47.404;8.502;2024-01-16T02:27:38;0.60;99.90
2010;DHT22;1008;47.404;8.502;2024-01-16T02:30:06;0.60;99.90
2010;DHT22;1008;47.404;8.502;2024-01-16T02:32:33;0.50;99.90
2010;DHT22;1008;47.404;8.502;2024-01-16T02:35:00;0.40;99.90
2010;DHT22;1008;47.404;8.502;2024-01-16T02:37:26;0.30;99.90
2010;DHT22;1008;47.404;8.502;2024-01-16T02:39:53;0.30;99.90
2010;DHT22;1008;47.404;8.502;2024-01-16T02:42:21;0.30;99.90
2010;DHT22;1008;47.404;8.502;2024-01-16T02:44:48;0.40;99.90
2010;DHT22;1008;47.404;8.502;2024-01-16T02:47:14;0.50;99.90
2010;DHT22;1008;47.404;8.502;2024-01-16T02:49:41;0.60;99.90
2010;DHT22;1008;47.404;8.502;2024-01-16T02:52:08;0.70;99.90
2010;DHT22;1008;47.404;8.502;2024-01-16T02:54:34;0.70;99.90
2010;DHT22;1008;47.404;8.502;2024-01-16T02:57:01;0.50;99.90
2010;DHT22;1008;47.404;8.502;2024-01-16T02:59:29;0.60;99.90
2010;DHT22;1008;47.404;8.502;2024-01-16T03:01:56;0.50;99.90
2010;DHT22;1008;47.404;8.502;2024-01-16T03:04:23;0.40;99.90
2010;DHT22;1008;47.404;8.502;2024-01-16T03:06:50;0.50;99.90
2010;DHT22;1008;47.404;8.502;2024-01-16T03:09:16;0.40;99.90
2010;DHT22;1008;47.404;8.502;2024-01-16T03:11:43;0.50;99.90
2010;DHT22;1008;47.404;8.502;2024-01-16T03:14:10;0.50;99.90
2010;DHT22;1008;47.404;8.502;2024-01-16T03:16:38;0.50;99.90
2010;DHT22;1008;47.404;8.502;2024-01-16T03:19:05;0.50;99.90
2010;DHT22;1008;47.404;8.502;2024-01-16T03:21:32;0.50;99.90
2010;DHT22;1008;47.404;8.502;2024-01-16T03:23:59;0.50;99.90
2010;DHT22;1008;47.404;8.502;2024-01-16T03:26:26;0.70;99.90
2010;DHT22;1008;47.404;8.502;2024-01-16T03:28:53;0.50;99.90
2010;DHT22;1008;47.404;8.502;2024-01-16T03:31:20;0.50;99.90
2010;DHT22;1008;47.404;8.502;2024-01-16T03:33:49;0.60;99.90
2010;DHT22;1008;47.404;8.502;2024-01-16T03:36:16;0.70;99.90
2010;DHT22;1008;47.404;8.502;2024-01-16T03:38:43;0.70;99.90
2010;DHT22;1008;47.404;8.502;2024-01-16T03:41:11;0.70;99.90
2010;DHT22;1008;47.404;8.502;2024-01-16T03:43:38;0.80;99.90
2010;DHT22;1008;47.404;8.502;2024-01-16T03:46:05;0.80;99.90
2010;DHT22;1008;47.404;8.502;2024-01-16T03:48:33;0.70;99.90
2010;DHT22;1008;47.404;8.502;2024-01-16T03:51:01;1.00;99.90
2010;DHT22;1008;47.404;8.502;2024-01-16T03:53:28;0.80;99.90
2010;DHT22;1008;47.404;8.502;2024-01-16T03:55:56;0.90;99.90
2010;DHT22;1008;47.404;8.502;2024-01-16T03:58:22;0.80;99.90
2010;DHT22;1008;47.404;8.502;2024-01-16T04:00:49;0.80;99.90
2010;DHT22;1008;47.404;8.502;2024-01-16T04:03:16;0.70;99.90
2010;DHT22;1008;47.404;8.502;2024-01-16T04:05:43;0.80;99.90
2010;DHT22;1008;47.404;8.502;2024-01-16T04:08:11;0.70;99.90
2010;DHT22;1008;47.404;8.502;2024-01-16T04:10:38;0.70;99.90
2010;DHT22;1008;47.404;8.502;2024-01-16T04:13:05;0.80;99.90
2010;DHT22;1008;47.404;8.502;2024-01-16T04:15:32;0.80;99.90
2010;DHT22;1008;47.404;8.502;2024-01-16T04:17:59;0.80;99.90
2010;DHT22;1008;47.404;8.502;2024-01-16T04:20:26;0.80;99.90
2010;DHT22;1008;47.404;8.502;2024-01-16T04:22:53;0.70;99.90
2010;DHT22;1008;47.404;8.502;2024-01-16T04:25:21;0.80;99.90
2010;DHT22;1008;47.404;8.502;2024-01-16T04:27:48;0.80;99.90
2010;DHT22;1008;47.404;8.502;2024-01-16T04:30:17;0.80;99.90
2010;DHT22;1008;47.404;8.502;2024-01-16T04:32:45;0.80;99.90
2010;DHT22;1008;47.404;8.502;2024-01-16T04:35:12;0.90;99.90
2010;DHT22;1008;47.404;8.502;2024-01-16T04:37:40;0.90;99.90
2010;DHT22;1008;47.404;8.502;2024-01-16T04:40:08;0.80;99.90
2010;DHT22;1008;47.404;8.502;2024-01-16T04:42:36;0.60;99.90
2010;DHT22;1008;47.404;8.502;2024-01-16T04:45:03;0.80;99.90
2010;DHT22;1008;47.404;8.502;2024-01-16T04:47:30;0.70;99.90
2010;DHT22;1008;47.404;8.502;2024-01-16T04:49:57;0.60;99.90
2010;DHT22;1008;47.404;8.502;2024-01-16T04:52:23;0.70;99.90
2010;DHT22;1008;47.404;8.502;2024-01-16T04:54:50;0.60;99.90
2010;DHT22;1008;47.404;8.502;2024-01-16T04:57:18;0.60;99.90
2010;DHT22;1008;47.404;8.502;2024-01-16T04:59:46;0.60;99.90
2010;DHT22;1008;47.404;8.502;2024-01-16T05:02:13;0.50;99.90
2010;DHT22;1008;47.404;8.502;2024-01-16T05:04:42;0.60;99.90
2010;DHT22;1008;47.404;8.502;2024-01-16T05:07:09;0.60;99.90
2010;DHT22;1008;47.404;8.502;2024-01-16T05:09:35;0.60;99.90
2010;DHT22;1008;47.404;8.502;2024-01-16T05:12:03;0.60;99.90
2010;DHT22;1008;47.404;8.502;2024-01-16T05:14:30;0.60;99.90
2010;DHT22;1008;47.404;8.502;2024-01-16T05:16:58;0.50;99.90
2010;DHT22;1008;47.404;8.502;2024-01-16T05:19:24;0.50;99.90
2010;DHT22;1008;47.404;8.502;2024-01-16T05:21:51;0.60;99.90
2010;DHT22;1008;47.404;8.502;2024-01-16T05:24:18;0.50;99.90
2010;DHT22;1008;47.404;8.502;2024-01-16T05:26:44;0.60;99.90
2010;DHT22;1008;47.404;8.502;2024-01-16T05:29:11;0.50;99.90
2010;DHT22;1008;47.404;8.502;2024-01-16T05:31:40;0.50;99.90
2010;DHT22;1008;47.404;8.502;2024-01-16T05:34:08;0.60;99.90
2010;DHT22;1008;47.404;8.502;2024-01-16T05:36:35;0.50;99.90
2010;DHT22;1008;47.404;8.502;2024-01-16T05:39:02;0.40;99.90
2010;DHT22;1008;47.404;8.502;2024-01-16T05:41:32;0.50;99.90
2010;DHT22;1008;47.404;8.502;2024-01-16T05:43:59;0.50;99.90
2010;DHT22;1008;47.404;8.502;2024-01-16T05:46:27;0.60;99.90
2010;DHT22;1008;47.404;8.502;2024-01-16T05:48:53;0.50;99.90
2010;DHT22;1008;47.404;8.502;2024-01-16T05:51:21;0.60;99.90
2010;DHT22;1008;47.404;8.502;2024-01-16T05:53:48;0.60;99.90
2010;DHT22;1008;47.404;8.502;2024-01-16T05:56:15;0.60;99.90
2010;DHT22;1008;47.404;8.502;2024-01-16T05:58:41;0.60;99.90
2010;DHT22;1008;47.404;8.502;2024-01-16T06:01:08;0.70;99.90
2010;DHT22;1008;47.404;8.502;2024-01-16T06:03:35;0.70;99.90
2010;DHT22;1008;47.404;8.502;2024-01-16T06:06:02;0.70;99.90
2010;DHT22;1008;47.404;8.502;2024-01-16T06:08:30;0.80;99.90
2010;DHT22;1008;47.404;8.502;2024-01-16T06:10:56;0.70;99.90
2010;DHT22;1008;47.404;8.502;2024-01-16T06:13:23;0.70;99.90
2010;DHT22;1008;47.404;8.502;2024-01-16T06:15:50;0.60;99.90
2010;DHT22;1008;47.404;8.502;2024-01-16T06:18:16;0.60;99.90
2010;DHT22;1008;47.404;8.502;2024-01-16T06:20:43;0.70;99.90
2010;DHT22;1008;47.404;8.502;2024-01-16T06:23:10;0.80;99.90
2010;DHT22;1008;47.404;8.502;2024-01-16T06:25:38;0.80;99.90
2010;DHT22;1008;47.404;8.502;2024-01-16T06:28:05;0.70;99.90
2010;DHT22;1008;47.404;8.502;2024-01-16T06:30:32;0.70;99.90
2010;DHT22;1008;47.404;8.502;2024-01-16T06:32:59;0.70;99.90
2010;DHT22;1008;47.404;8.502;2024-01-16T06:35:26;0.70;99.90
2010;DHT22;1008;47.404;8.502;2024-01-16T06:37:53;0.60;99.90
2010;DHT22;1008;47.404;8.502;2024-01-16T06:40:19;0.50;99.90
2010;DHT22;1008;47.404;8.502;2024-01-16T06:42:47;0.50;99.90
2010;DHT22;1008;47.404;8.502;2024-01-16T06:45:14;0.40;99.90
2010;DHT22;1008;47.404;8.502;2024-01-16T06:47:42;0.50;99.90
2010;DHT22;1008;47.404;8.502;2024-01-16T06:50:08;0.50;99.90
2010;DHT22;1008;47.404;8.502;2024-01-16T06:52:35;0.50;99.90
2010;DHT22;1008;47.404;8.502;2024-01-16T06:55:02;0.60;99.90
2010;DHT22;1008;47.404;8.502;2024-01-16T06:57:29;0.60;99.90
2010;DHT22;1008;47.404;8.502;2024-01-16T06:59:57;0.50;99.90
2010;DHT22;1008;47.404;8.502;2024-01-16T07:02:24;0.40;99.90
2010;DHT22;1008;47.404;8.502;2024-01-16T07:04:51;0.20;99.90
2010;DHT22;1008;47.404;8.502;2024-01-16T07:07:18;0.10;99.90
2010;DHT22;1008;47.404;8.502;2024-01-16T07:09:45;0.00;99.90
2010;DHT22;1008;47.404;8.502;2024-01-16T07:12:12;0.00;99.90
2010;DHT22;1008;47.404;8.502;2024-01-16T07:14:39;0.00;99.90
2010;DHT22;1008;47.404;8.502;2024-01-16T07:17:07;0.10;99.90
2010;DHT22;1008;47.404;8.502;2024-01-16T07:19:34;0.10;99.90
2010;DHT22;1008;47.404;8.502;2024-01-16T07:22:00;0.00;99.90
2010;DHT22;1008;47.404;8.502;2024-01-16T07:24:28;-0.20;99.90
2010;DHT22;1008;47.404;8.502;2024-01-16T07:26:54;-0.20;99.90
2010;DHT22;1008;47.404;8.502;2024-01-16T07:29:21;-0.20;99.90
2010;DHT22;1008;47.404;8.502;2024-01-16T07:31:48;0.00;99.90
2010;DHT22;1008;47.404;8.502;2024-01-16T07:34:16;0.00;99.90
2010;DHT22;1008;47.404;8.502;2024-01-16T07:36:47;0.10;99.90
2010;DHT22;1008;47.404;8.502;2024-01-16T07:39:14;0.10;99.90
2010;DHT22;1008;47.404;8.502;2024-01-16T07:41:40;0.10;99.90
2010;DHT22;1008;47.404;8.502;2024-01-16T07:44:07;0.20;99.90
2010;DHT22;1008;47.404;8.502;2024-01-16T07:46:34;0.30;99.90
2010;DHT22;1008;47.404;8.502;2024-01-16T07:49:01;0.30;99.90
2010;DHT22;1008;47.404;8.502;2024-01-16T07:51:29;0.30;99.90
2010;DHT22;1008;47.404;8.502;2024-01-16T07:54:05;0.40;99.90
2010;DHT22;1008;47.404;8.502;2024-01-16T07:56:32;0.50;99.90
2010;DHT22;1008;47.404;8.502;2024-01-16T07:58:58;0.60;99.90
2010;DHT22;1008;47.404;8.502;2024-01-16T08:01:25;0.60;99.90
2010;DHT22;1008;47.404;8.502;2024-01-16T08:03:52;0.60;99.90
2010;DHT22;1008;47.404;8.502;2024-01-16T08:06:18;0.60;99.90
2010;DHT22;1008;47.404;8.502;2024-01-16T08:08:46;0.70;99.90
2010;DHT22;1008;47.404;8.502;2024-01-16T08:11:14;0.80;99.90
2010;DHT22;1008;47.404;8.502;2024-01-16T08:13:40;0.90;99.90
2010;DHT22;1008;47.404;8.502;2024-01-16T08:16:07;1.10;99.90
2010;DHT22;1008;47.404;8.502;2024-01-16T08:18:34;1.20;99.90
2010;DHT22;1008;47.404;8.502;2024-01-16T08:21:01;1.30;99.90
2010;DHT22;1008;47.404;8.502;2024-01-16T08:23:27;1.40;99.90
2010;DHT22;1008;47.404;8.502;2024-01-16T08:25:55;1.50;99.90
2010;DHT22;1008;47.404;8.502;2024-01-16T08:28:22;1.70;99.90
2010;DHT22;1008;47.404;8.502;2024-01-16T08:30:50;1.70;99.90
2010;DHT22;1008;47.404;8.502;2024-01-16T08:33:17;1.90;99.90
2010;DHT22;1008;47.404;8.502;2024-01-16T08:35:43;2.10;99.90
2010;DHT22;1008;47.404;8.502;2024-01-16T08:38:10;2.20;99.90
2010;DHT22;1008;47.404;8.502;2024-01-16T08:40:37;2.30;99.90
2010;DHT22;1008;47.404;8.502;2024-01-16T08:43:05;2.40;99.90
2010;DHT22;1008;47.404;8.502;2024-01-16T08:45:32;2.70;99.90
2010;DHT22;1008;47.404;8.502;2024-01-16T08:47:58;2.70;99.90
2010;DHT22;1008;47.404;8.502;2024-01-16T08:50:25;2.80;99.90
2010;DHT22;1008;47.404;8.502;2024-01-16T08:52:52;2.90;99.90
2010;DHT22;1008;47.404;8.502;2024-01-16T08:55:19;2.70;99.90
2010;DHT22;1008;47.404;8.502;2024-01-16T08:57:45;2.60;99.90
2010;DHT22;1008;47.404;8.502;2024-01-16T09:00:14;2.40;99.90
2010;DHT22;1008;47.404;8.502;2024-01-16T09:02:41;2.50;99.90
2010;DHT22;1008;47.404;8.502;2024-01-16T09:05:08;2.70;99.90
2010;DHT22;1008;47.404;8.502;2024-01-16T09:07:34;2.80;99.90
2010;DHT22;1008;47.404;8.502;2024-01-16T09:10:01;3.10;99.90
2010;DHT22;1008;47.404;8.502;2024-01-16T09:12:28;3.30;99.90
2010;DHT22;1008;47.404;8.502;2024-01-16T09:14:55;3.40;99.90
2010;DHT22;1008;47.404;8.502;2024-01-16T09:17:23;3.70;99.90
2010;DHT22;1008;47.404;8.502;2024-01-16T09:19:51;3.90;99.90
2010;DHT22;1008;47.404;8.502;2024-01-16T09:22:17;4.00;99.90
2010;DHT22;1008;47.404;8.502;2024-01-16T09:24:44;4.20;99.90
2010;DHT22;1008;47.404;8.502;2024-01-16T09:27:11;4.40;99.90
2010;DHT22;1008;47.404;8.502;2024-01-16T09:29:39;4.50;99.90
2010;DHT22;1008;47.404;8.502;2024-01-16T09:32:06;4.70;99.90
2010;DHT22;1008;47.404;8.502;2024-01-16T09:34:34;4.90;99.90
2010;DHT22;1008;47.404;8.502;2024-01-16T09:37:01;5.10;99.90
2010;DHT22;1008;47.404;8.502;2024-01-16T09:39:29;5.40;99.90
2010;DHT22;1008;47.404;8.502;2024-01-16T09:41:59;5.30;99.00
2010;DHT22;1008;47.404;8.502;2024-01-16T09:44:27;4.90;98.10
2010;DHT22;1008;47.404;8.502;2024-01-16T09:46:55;4.90;99.80
2010;DHT22;1008;47.404;8.502;2024-01-16T09:49:22;4.90;99.90
2010;DHT22;1008;47.404;8.502;2024-01-16T09:51:51;4.90;99.20
2010;DHT22;1008;47.404;8.502;2024-01-16T09:54:17;5.40;99.50
2010;DHT22;1008;47.404;8.502;2024-01-16T09:56:44;5.60;97.20
2010;DHT22;1008;47.404;8.502;2024-01-16T09:59:17;5.40;96.20
2010;DHT22;1008;47.404;8.502;2024-01-16T10:01:45;5.10;95.90
2010;DHT22;1008;47.404;8.502;2024-01-16T10:04:12;4.90;97.90
2010;DHT22;1008;47.404;8.502;2024-01-16T10:06:39;4.80;97.50
2010;DHT22;1008;47.404;8.502;2024-01-16T10:09:07;4.80;97.10
2010;DHT22;1008;47.404;8.502;2024-01-16T10:11:37;4.40;97.30
2010;DHT22;1008;47.404;8.502;2024-01-16T10:14:05;4.30;97.70
2010;DHT22;1008;47.404;8.502;2024-01-16T10:16:57;4.20;99.20
2010;DHT22;1008;47.404;8.502;2024-01-16T10:19:24;4.20;99.90
2010;DHT22;1008;47.404;8.502;2024-01-16T10:21:51;4.10;99.90
2010;DHT22;1008;47.404;8.502;2024-01-16T10:24:19;4.00;99.90
2010;DHT22;1008;47.404;8.502;2024-01-16T10:26:58;4.00;99.90
2010;DHT22;1008;47.404;8.502;2024-01-16T10:29:26;4.00;99.90
2010;DHT22;1008;47.404;8.502;2024-01-16T10:31:52;3.90;99.90
2010;DHT22;1008;47.404;8.502;2024-01-16T10:34:20;4.00;99.90
2010;DHT22;1008;47.404;8.502;2024-01-16T10:36:49;4.20;99.90
2010;DHT22;1008;47.404;8.502;2024-01-16T10:39:16;4.20;99.90
2010;DHT22;1008;47.404;8.502;2024-01-16T10:41:54;4.30;99.90
2010;DHT22;1008;47.404;8.502;2024-01-16T10:44:21;4.50;99.90
2010;DHT22;1008;47.404;8.502;2024-01-16T10:46:47;4.80;99.90
2010;DHT22;1008;47.404;8.502;2024-01-16T10:49:14;4.90;99.90
2010;DHT22;1008;47.404;8.502;2024-01-16T10:51:43;4.80;98.10
2010;DHT22;1008;47.404;8.502;2024-01-16T10:54:13;5.10;98.70
2010;DHT22;1008;47.404;8.502;2024-01-16T10:56:45;5.70;98.20
2010;DHT22;1008;47.404;8.502;2024-01-16T10:59:18;6.10;95.20
2010;DHT22;1008;47.404;8.502;2024-01-16T11:01:50;6.10;93.80
2010;DHT22;1008;47.404;8.502;2024-01-16T11:04:18;5.90;93.90
2010;DHT22;1008;47.404;8.502;2024-01-16T11:06:47;5.80;93.40
2010;DHT22;1008;47.404;8.502;2024-01-16T11:09:14;6.00;94.60
2010;DHT22;1008;47.404;8.502;2024-01-16T11:11:43;6.40;93.10
2010;DHT22;1008;47.404;8.502;2024-01-16T11:14:12;6.70;92.50
2010;DHT22;1008;47.404;8.502;2024-01-16T11:16:41;7.30;91.90
2010;DHT22;1008;47.404;8.502;2024-01-16T11:19:09;7.70;90.20
2010;DHT22;1008;47.404;8.502;2024-01-16T11:21:37;7.70;85.40
2010;DHT22;1008;47.404;8.502;2024-01-16T11:24:04;7.20;87.20
2010;DHT22;1008;47.404;8.502;2024-01-16T11:26:32;7.20;87.00
2010;DHT22;1008;47.404;8.502;2024-01-16T11:29:00;6.80;86.40
2010;DHT22;1008;47.404;8.502;2024-01-16T11:31:30;6.50;87.00
2010;DHT22;1008;47.404;8.502;2024-01-16T11:33:58;6.40;89.10
2010;DHT22;1008;47.404;8.502;2024-01-16T11:36:47;6.60;89.20
2010;DHT22;1008;47.404;8.502;2024-01-16T11:39:19;6.10;89.40
2010;DHT22;1008;47.404;8.502;2024-01-16T11:41:50;5.60;90.70
2010;DHT22;1008;47.404;8.502;2024-01-16T11:44:38;5.60;91.90
2010;DHT22;1008;47.404;8.502;2024-01-16T11:47:07;5.90;91.90
2010;DHT22;1008;47.404;8.502;2024-01-16T11:49:34;6.20;91.30
2010;DHT22;1008;47.404;8.502;2024-01-16T11:52:01;6.80;90.40
2010;DHT22;1008;47.404;8.502;2024-01-16T11:54:28;6.40;89.80
2010;DHT22;1008;47.404;8.502;2024-01-16T11:57:19;6.40;90.90
2010;DHT22;1008;47.404;8.502;2024-01-16T11:59:59;6.80;90.30
2010;DHT22;1008;47.404;8.502;2024-01-16T12:02:42;6.10;89.70
2010;DHT22;1008;47.404;8.502;2024-01-16T12:05:13;6.60;90.60
2010;DHT22;1008;47.404;8.502;2024-01-16T12:07:45;7.50;89.40
2010;DHT22;1008;47.404;8.502;2024-01-16T12:10:12;8.00;87.00
2010;DHT22;1008;47.404;8.502;2024-01-16T12:12:39;8.70;83.90
2010;DHT22;1008;47.404;8.502;2024-01-16T12:15:06;8.90;81.30
2010;DHT22;1008;47.404;8.502;2024-01-16T12:17:34;9.10;79.80
2010;DHT22;1008;47.404;8.502;2024-01-16T12:20:15;9.20;79.90
2010;DHT22;1008;47.404;8.502;2024-01-16T12:22:42;9.30;76.00
2010;DHT22;1008;47.404;8.502;2024-01-16T12:25:09;9.20;76.30
2010;DHT22;1008;47.404;8.502;2024-01-16T12:27:38;8.60;75.50
2010;DHT22;1008;47.404;8.502;2024-01-16T12:30:06;7.90;78.20
2010;DHT22;1008;47.404;8.502;2024-01-16T12:32:34;7.60;80.10
2010;DHT22;1008;47.404;8.502;2024-01-16T12:35:01;7.20;81.20
2010;DHT22;1008;47.404;8.502;2024-01-16T12:37:29;7.30;83.70
2010;DHT22;1008;47.404;8.502;2024-01-16T12:39:56;6.70;83.50
2010;DHT22;1008;47.404;8.502;2024-01-16T12:42:23;7.00;85.30
2010;DHT22;1008;47.404;8.502;2024-01-16T12:44:50;7.10;85.90
2010;DHT22;1008;47.404;8.502;2024-01-16T12:47:17;7.20;86.60
2010;DHT22;1008;47.404;8.502;2024-01-16T12:49:46;7.30;85.50
2010;DHT22;1008;47.404;8.502;2024-01-16T12:52:20;7.80;84.40
2010;DHT22;1008;47.404;8.502;2024-01-16T12:54:47;7.30;82.40
2010;DHT22;1008;47.404;8.502;2024-01-16T12:57:18;6.80;84.30
2010;DHT22;1008;47.404;8.502;2024-01-16T12:59:46;6.40;86.40
2010;DHT22;1008;47.404;8.502;2024-01-16T13:02:20;6.30;89.70
2010;DHT22;1008;47.404;8.502;2024-01-16T13:04:56;6.20;89.30
2010;DHT22;1008;47.404;8.502;2024-01-16T13:07:24;6.30;89.80
2010;DHT22;1008;47.404;8.502;2024-01-16T13:10:05;5.70;90.90
2010;DHT22;1008;47.404;8.502;2024-01-16T13:12:32;5.60;91.60
2010;DHT22;1008;47.404;8.502;2024-01-16T13:14:59;5.50;92.40
2010;DHT22;1008;47.404;8.502;2024-01-16T13:17:26;5.60;92.30
2010;DHT22;1008;47.404;8.502;2024-01-16T13:19:54;6.00;92.50
2010;DHT22;1008;47.404;8.502;2024-01-16T13:22:20;6.10;92.70
2010;DHT22;1008;47.404;8.502;2024-01-16T13:24:47;6.30;92.30
2010;DHT22;1008;47.404;8.502;2024-01-16T13:27:14;6.60;91.50
2010;DHT22;1008;47.404;8.502;2024-01-16T13:29:40;6.40;91.20
2010;DHT22;1008;47.404;8.502;2024-01-16T13:32:07;7.00;91.10
2010;DHT22;1008;47.404;8.502;2024-01-16T13:34:34;6.50;90.70
2010;DHT22;1008;47.404;8.502;2024-01-16T13:37:03;6.30;91.20
2010;DHT22;1008;47.404;8.502;2024-01-16T13:39:31;6.30;91.70
2010;DHT22;1008;47.404;8.502;2024-01-16T13:42:02;6.10;92.20
2010;DHT22;1008;47.404;8.502;2024-01-16T13:44:31;6.40;92.30
2010;DHT22;1008;47.404;8.502;2024-01-16T13:46:57;6.80;91.60
2010;DHT22;1008;47.404;8.502;2024-01-16T13:49:24;6.70;90.30
2010;DHT22;1008;47.404;8.502;2024-01-16T13:51:51;6.40;90.90
2010;DHT22;1008;47.404;8.502;2024-01-16T13:54:19;5.90;91.10
2010;DHT22;1008;47.404;8.502;2024-01-16T13:56:46;5.40;92.80
2010;DHT22;1008;47.404;8.502;2024-01-16T13:59:12;5.30;93.70
2010;DHT22;1008;47.404;8.502;2024-01-16T14:01:39;5.30;94.00
2010;DHT22;1008;47.404;8.502;2024-01-16T14:04:06;5.10;94.90
2010;DHT22;1008;47.404;8.502;2024-01-16T14:06:33;4.40;95.90
2010;DHT22;1008;47.404;8.502;2024-01-16T14:08:59;4.70;97.60
2010;DHT22;1008;47.404;8.502;2024-01-16T14:11:27;4.80;97.30
2010;DHT22;1008;47.404;8.502;2024-01-16T14:13:54;4.80;97.40
2010;DHT22;1008;47.404;8.502;2024-01-16T14:16:22;5.00;97.50
2010;DHT22;1008;47.404;8.502;2024-01-16T14:18:49;5.10;96.70
2010;DHT22;1008;47.404;8.502;2024-01-16T14:21:16;5.20;96.60
2010;DHT22;1008;47.404;8.502;2024-01-16T14:23:42;5.10;96.00
2010;DHT22;1008;47.404;8.502;2024-01-16T14:26:09;5.00;96.80
2010;DHT22;1008;47.404;8.502;2024-01-16T14:28:37;5.30;97.20
2010;DHT22;1008;47.404;8.502;2024-01-16T14:31:04;5.40;96.80
2010;DHT22;1008;47.404;8.502;2024-01-16T14:33:31;4.90;95.90
2010;DHT22;1008;47.404;8.502;2024-01-16T14:35:57;5.20;96.90
2010;DHT22;1008;47.404;8.502;2024-01-16T14:38:24;5.30;97.20
2010;DHT22;1008;47.404;8.502;2024-01-16T14:40:51;5.60;96.20
2010;DHT22;1008;47.404;8.502;2024-01-16T14:43:21;5.80;95.60
2010;DHT22;1008;47.404;8.502;2024-01-16T14:45:49;5.80;95.80
2010;DHT22;1008;47.404;8.502;2024-01-16T14:48:16;5.90;95.30
2010;DHT22;1008;47.404;8.502;2024-01-16T14:50:43;5.80;94.90
2010;DHT22;1008;47.404;8.502;2024-01-16T14:53:11;5.60;95.30
2010;DHT22;1008;47.404;8.502;2024-01-16T14:55:38;5.30;95.50
2010;DHT22;1008;47.404;8.502;2024-01-16T14:58:04;5.10;96.70
2010;DHT22;1008;47.404;8.502;2024-01-16T15:00:34;4.60;97.50
2010;DHT22;1008;47.404;8.502;2024-01-16T15:03:02;4.60;98.60
2010;DHT22;1008;47.404;8.502;2024-01-16T15:05:29;4.60;99.50
2010;DHT22;1008;47.404;8.502;2024-01-16T15:07:56;4.40;99.90
2010;DHT22;1008;47.404;8.502;2024-01-16T15:10:23;4.20;99.90
2010;DHT22;1008;47.404;8.502;2024-01-16T15:12:50;4.20;99.90
2010;DHT22;1008;47.404;8.502;2024-01-16T15:15:17;4.50;99.90
2010;DHT22;1008;47.404;8.502;2024-01-16T15:17:44;4.60;99.90
2010;DHT22;1008;47.404;8.502;2024-01-16T15:20:12;4.60;99.90
2010;DHT22;1008;47.404;8.502;2024-01-16T15:22:40;4.40;99.90
2010;DHT22;1008;47.404;8.502;2024-01-16T15:25:09;4.00;99.90
2010;DHT22;1008;47.404;8.502;2024-01-16T15:27:37;3.90;99.90
2010;DHT22;1008;47.404;8.502;2024-01-16T15:30:05;3.80;99.90
2010;DHT22;1008;47.404;8.502;2024-01-16T15:32:33;4.00;99.90
2010;DHT22;1008;47.404;8.502;2024-01-16T15:35:00;3.90;99.90
2010;DHT22;1008;47.404;8.502;2024-01-16T15:37:28;3.80;99.90
2010;DHT22;1008;47.404;8.502;2024-01-16T15:39:57;3.70;99.90
2010;DHT22;1008;47.404;8.502;2024-01-16T15:42:25;3.50;99.90
2010;DHT22;1008;47.404;8.502;2024-01-16T15:44:52;3.60;99.90
2010;DHT22;1008;47.404;8.502;2024-01-16T15:47:20;3.50;99.90
2010;DHT22;1008;47.404;8.502;2024-01-16T15:49:46;3.60;99.90
2010;DHT22;1008;47.404;8.502;2024-01-16T15:52:13;3.60;99.90
2010;DHT22;1008;47.404;8.502;2024-01-16T15:54:41;3.70;99.90
2010;DHT22;1008;47.404;8.502;2024-01-16T15:57:08;3.60;99.90
2010;DHT22;1008;47.404;8.502;2024-01-16T15:59:36;3.40;99.90
2010;DHT22;1008;47.404;8.502;2024-01-16T16:02:02;3.20;99.90
2010;DHT22;1008;47.404;8.502;2024-01-16T16:04:29;3.20;99.90
2010;DHT22;1008;47.404;8.502;2024-01-16T16:06:56;3.20;99.90
2010;DHT22;1008;47.404;8.502;2024-01-16T16:09:22;3.40;99.90
2010;DHT22;1008;47.404;8.502;2024-01-16T16:11:52;3.30;99.90
2010;DHT22;1008;47.404;8.502;2024-01-16T16:14:19;3.10;99.90
2010;DHT22;1008;47.404;8.502;2024-01-16T16:16:48;3.00;99.90
2010;DHT22;1008;47.404;8.502;2024-01-16T16:19:15;3.10;99.90
2010;DHT22;1008;47.404;8.502;2024-01-16T16:21:42;3.00;99.90